sensor_id;sensor_type;location;lat;lon;timestamp;P1;durP1;ratioP1;P2;durP2;ratioP2
9208;SDS011;4639;48.862;9.188;2023-06-14T00:01:19;4.00;;;3.47;;
9208;SDS011;4639;48.862;9.188;2023-06-14T00:03:47;4.00;;;3.60;;
9208;SDS011;4639;48.862;9.188;2023-06-14T00:06:13;6.00;;;4.47;;
9208;SDS011;4639;48.862;9.188;2023-06-14T00:08:39;5.50;;;4.40;;
9208;SDS011;4639;48.862;9.188;2023-06-14T00:11:05;4.85;;;4.13;;
9208;SDS011;4639;48.862;9.188;2023-06-14T00:13:31;7.30;;;4.07;;
9208;SDS011;4639;48.862;9.188;2023-06-14T00:15:57;5.28;;;3.22;;
9208;SDS011;4639;48.862;9.188;2023-06-14T00:18:23;5.80;;;4.00;;
9208;SDS011;4639;48.862;9.188;2023-06-14T00:20:54;4.30;;;3.90;;
9208;SDS011;4639;48.862;9.188;2023-06-14T00:23:20;7.30;;;3.70;;
9208;SDS011;4639;48.862;9.188;2023-06-14T00:25:46;5.78;;;3.78;;
9208;SDS011;4639;48.862;9.188;2023-06-14T00:28:11;5.05;;;4.18;;
9208;SDS011;4639;48.862;9.188;2023-06-14T00:30:37;4.57;;;4.10;;
9208;SDS011;4639;48.862;9.188;2023-06-14T00:33:03;6.45;;;3.53;;
9208;SDS011;4639;48.862;9.188;2023-06-14T00:35:29;4.63;;;4.18;;
9208;SDS011;4639;48.862;9.188;2023-06-14T00:37:55;6.05;;;3.90;;
9208;SDS011;4639;48.862;9.188;2023-06-14T00:40:20;8.65;;;4.25;;
9208;SDS011;4639;48.862;9.188;2023-06-14T00:42:46;4.47;;;3.60;;
9208;SDS011;4639;48.862;9.188;2023-06-14T00:45:12;7.00;;;4.20;;
9208;SDS011;4639;48.862;9.188;2023-06-14T00:47:38;4.13;;;3.72;;
9208;SDS011;4639;48.862;9.188;2023-06-14T00:50:06;4.57;;;4.07;;
9208;SDS011;4639;48.862;9.188;2023-06-14T00:52:33;4.45;;;3.85;;
9208;SDS011;4639;48.862;9.188;2023-06-14T00:54:59;5.75;;;4.20;;
9208;SDS011;4639;48.862;9.188;2023-06-14T00:57:26;5.30;;;4.00;;
9208;SDS011;4639;48.862;9.188;2023-06-14T00:59:52;5.57;;;3.67;;
9208;SDS011;4639;48.862;9.188;2023-06-14T01:02:19;5.93;;;3.58;;
9208;SDS011;4639;48.862;9.188;2023-06-14T01:04:46;7.10;;;3.90;;
9208;SDS011;4639;48.862;9.188;2023-06-14T01:07:33;4.40;;;3.88;;
9208;SDS011;4639;48.862;9.188;2023-06-14T01:10:42;5.93;;;3.90;;
9208;SDS011;4639;48.862;9.188;2023-06-14T01:13:34;7.30;;;4.50;;
9208;SDS011;4639;48.862;9.188;2023-06-14T01:16:03;4.57;;;3.65;;
9208;SDS011;4639;48.862;9.188;2023-06-14T01:18:29;6.50;;;4.32;;
9208;SDS011;4639;48.862;9.188;2023-06-14T01:20:55;4.90;;;3.97;;
9208;SDS011;4639;48.862;9.188;2023-06-14T01:23:22;6.47;;;3.70;;
9208;SDS011;4639;48.862;9.188;2023-06-14T01:25:48;7.53;;;3.97;;
9208;SDS011;4639;48.862;9.188;2023-06-14T01:28:17;4.47;;;4.03;;
9208;SDS011;4639;48.862;9.188;2023-06-14T01:30:45;5.28;;;4.18;;
9208;SDS011;4639;48.862;9.188;2023-06-14T01:33:17;4.93;;;3.97;;
9208;SDS011;4639;48.862;9.188;2023-06-14T01:35:46;8.85;;;4.22;;
9208;SDS011;4639;48.862;9.188;2023-06-14T01:38:12;5.40;;;3.80;;
9208;SDS011;4639;48.862;9.188;2023-06-14T01:40:39;5.10;;;4.30;;
9208;SDS011;4639;48.862;9.188;2023-06-14T01:43:06;7.13;;;4.03;;
9208;SDS011;4639;48.862;9.188;2023-06-14T01:45:33;6.03;;;3.63;;
9208;SDS011;4639;48.862;9.188;2023-06-14T01:48:01;6.03;;;3.33;;
9208;SDS011;4639;48.862;9.188;2023-06-14T01:50:28;5.22;;;4.15;;
9208;SDS011;4639;48.862;9.188;2023-06-14T01:52:57;4.20;;;3.63;;
9208;SDS011;4639;48.862;9.188;2023-06-14T01:55:23;5.63;;;4.13;;
9208;SDS011;4639;48.862;9.188;2023-06-14T01:57:50;5.05;;;3.67;;
9208;SDS011;4639;48.862;9.188;2023-06-14T02:00:16;6.50;;;3.92;;
9208;SDS011;4639;48.862;9.188;2023-06-14T02:02:43;5.55;;;4.00;;
9208;SDS011;4639;48.862;9.188;2023-06-14T02:05:09;4.25;;;3.45;;
9208;SDS011;4639;48.862;9.188;2023-06-14T02:07:35;4.22;;;3.83;;
9208;SDS011;4639;48.862;9.188;2023-06-14T02:10:01;6.72;;;3.83;;
9208;SDS011;4639;48.862;9.188;2023-06-14T02:12:28;5.10;;;3.95;;
9208;SDS011;4639;48.862;9.188;2023-06-14T02:14:53;5.53;;;4.55;;
9208;SDS011;4639;48.862;9.188;2023-06-14T02:17:19;5.65;;;4.30;;
9208;SDS011;4639;48.862;9.188;2023-06-14T02:19:45;4.10;;;3.67;;
9208;SDS011;4639;48.862;9.188;2023-06-14T02:22:11;4.55;;;3.75;;
9208;SDS011;4639;48.862;9.188;2023-06-14T02:24:36;4.15;;;3.75;;
9208;SDS011;4639;48.862;9.188;2023-06-14T02:27:02;8.32;;;4.63;;
9208;SDS011;4639;48.862;9.188;2023-06-14T02:29:28;8.40;;;4.07;;
9208;SDS011;4639;48.862;9.188;2023-06-14T02:31:54;7.22;;;4.13;;
9208;SDS011;4639;48.862;9.188;2023-06-14T02:34:19;11.63;;;3.80;;
9208;SDS011;4639;48.862;9.188;2023-06-14T02:36:46;5.78;;;4.07;;
9208;SDS011;4639;48.862;9.188;2023-06-14T02:39:13;4.55;;;4.13;;
9208;SDS011;4639;48.862;9.188;2023-06-14T02:41:38;4.80;;;4.13;;
9208;SDS011;4639;48.862;9.188;2023-06-14T02:44:04;7.05;;;4.57;;
9208;SDS011;4639;48.862;9.188;2023-06-14T02:46:31;6.47;;;4.30;;
9208;SDS011;4639;48.862;9.188;2023-06-14T02:48:56;5.53;;;4.05;;
9208;SDS011;4639;48.862;9.188;2023-06-14T02:51:22;7.55;;;4.30;;
9208;SDS011;4639;48.862;9.188;2023-06-14T02:53:48;5.13;;;4.63;;
9208;SDS011;4639;48.862;9.188;2023-06-14T02:56:13;8.20;;;4.80;;
9208;SDS011;4639;48.862;9.188;2023-06-14T02:58:39;6.50;;;4.82;;
9208;SDS011;4639;48.862;9.188;2023-06-14T03:01:05;5.30;;;4.72;;
9208;SDS011;4639;48.862;9.188;2023-06-14T03:03:32;9.23;;;5.15;;
9208;SDS011;4639;48.862;9.188;2023-06-14T03:05:58;6.53;;;5.22;;
9208;SDS011;4639;48.862;9.188;2023-06-14T03:08:29;7.20;;;4.85;;
9208;SDS011;4639;48.862;9.188;2023-06-14T03:11:03;12.40;;;4.85;;
9208;SDS011;4639;48.862;9.188;2023-06-14T03:13:33;5.93;;;5.32;;
9208;SDS011;4639;48.862;9.188;2023-06-14T03:16:02;6.97;;;4.93;;
9208;SDS011;4639;48.862;9.188;2023-06-14T03:18:31;8.00;;;5.53;;
9208;SDS011;4639;48.862;9.188;2023-06-14T03:21:00;7.15;;;4.40;;
9208;SDS011;4639;48.862;9.188;2023-06-14T03:23:28;8.90;;;4.97;;
9208;SDS011;4639;48.862;9.188;2023-06-14T03:25:54;5.97;;;4.88;;
9208;SDS011;4639;48.862;9.188;2023-06-14T03:28:20;7.55;;;5.15;;
9208;SDS011;4639;48.862;9.188;2023-06-14T03:30:46;7.97;;;5.28;;
9208;SDS011;4639;48.862;9.188;2023-06-14T03:33:12;6.32;;;4.97;;
9208;SDS011;4639;48.862;9.188;2023-06-14T03:35:37;5.20;;;4.65;;
9208;SDS011;4639;48.862;9.188;2023-06-14T03:38:03;5.60;;;4.78;;
9208;SDS011;4639;48.862;9.188;2023-06-14T03:40:29;7.45;;;4.60;;
9208;SDS011;4639;48.862;9.188;2023-06-14T03:42:54;6.38;;;4.65;;
9208;SDS011;4639;48.862;9.188;2023-06-14T03:45:20;6.03;;;4.55;;
9208;SDS011;4639;48.862;9.188;2023-06-14T03:47:46;7.35;;;4.95;;
9208;SDS011;4639;48.862;9.188;2023-06-14T03:50:12;5.32;;;4.38;;
9208;SDS011;4639;48.862;9.188;2023-06-14T03:52:38;8.70;;;4.80;;
9208;SDS011;4639;48.862;9.188;2023-06-14T03:55:04;7.95;;;4.88;;
9208;SDS011;4639;48.862;9.188;2023-06-14T03:57:30;6.85;;;4.93;;
9208;SDS011;4639;48.862;9.188;2023-06-14T03:59:56;5.50;;;4.60;;
9208;SDS011;4639;48.862;9.188;2023-06-14T04:02:22;9.60;;;4.90;;
9208;SDS011;4639;48.862;9.188;2023-06-14T04:04:47;6.97;;;4.53;;
9208;SDS011;4639;48.862;9.188;2023-06-14T04:07:14;8.30;;;4.97;;
9208;SDS011;4639;48.862;9.188;2023-06-14T04:09:40;8.25;;;4.95;;
9208;SDS011;4639;48.862;9.188;2023-06-14T04:12:06;8.80;;;4.63;;
9208;SDS011;4639;48.862;9.188;2023-06-14T04:14:33;7.75;;;4.32;;
9208;SDS011;4639;48.862;9.188;2023-06-14T04:16:59;9.80;;;4.70;;
9208;SDS011;4639;48.862;9.188;2023-06-14T04:19:25;12.32;;;5.72;;
9208;SDS011;4639;48.862;9.188;2023-06-14T04:21:51;5.95;;;5.32;;
9208;SDS011;4639;48.862;9.188;2023-06-14T04:24:17;13.98;;;6.03;;
9208;SDS011;4639;48.862;9.188;2023-06-14T04:26:43;8.07;;;5.22;;
9208;SDS011;4639;48.862;9.188;2023-06-14T04:29:12;8.07;;;5.22;;
9208;SDS011;4639;48.862;9.188;2023-06-14T04:31:42;6.85;;;6.03;;
9208;SDS011;4639;48.862;9.188;2023-06-14T04:34:09;10.93;;;5.53;;
9208;SDS011;4639;48.862;9.188;2023-06-14T04:36:41;7.88;;;5.68;;
9208;SDS011;4639;48.862;9.188;2023-06-14T04:39:17;7.47;;;4.95;;
9208;SDS011;4639;48.862;9.188;2023-06-14T04:41:43;8.75;;;5.10;;
9208;SDS011;4639;48.862;9.188;2023-06-14T04:44:09;11.38;;;5.63;;
9208;SDS011;4639;48.862;9.188;2023-06-14T04:46:35;6.22;;;5.18;;
9208;SDS011;4639;48.862;9.188;2023-06-14T04:49:20;7.65;;;4.82;;
9208;SDS011;4639;48.862;9.188;2023-06-14T04:51:48;8.80;;;5.45;;
9208;SDS011;4639;48.862;9.188;2023-06-14T04:54:16;10.35;;;5.45;;
9208;SDS011;4639;48.862;9.188;2023-06-14T04:56:43;7.88;;;5.10;;
9208;SDS011;4639;48.862;9.188;2023-06-14T04:59:10;9.18;;;5.05;;
9208;SDS011;4639;48.862;9.188;2023-06-14T05:01:39;9.30;;;5.68;;
9208;SDS011;4639;48.862;9.188;2023-06-14T05:04:05;6.28;;;5.20;;
9208;SDS011;4639;48.862;9.188;2023-06-14T05:06:31;11.00;;;5.13;;
9208;SDS011;4639;48.862;9.188;2023-06-14T05:08:56;6.25;;;4.90;;
9208;SDS011;4639;48.862;9.188;2023-06-14T05:11:22;6.20;;;5.05;;
9208;SDS011;4639;48.862;9.188;2023-06-14T05:13:49;9.05;;;4.68;;
9208;SDS011;4639;48.862;9.188;2023-06-14T05:16:15;9.65;;;5.82;;
9208;SDS011;4639;48.862;9.188;2023-06-14T05:18:41;7.93;;;4.82;;
9208;SDS011;4639;48.862;9.188;2023-06-14T05:21:07;7.25;;;4.88;;
9208;SDS011;4639;48.862;9.188;2023-06-14T05:23:33;9.38;;;4.75;;
9208;SDS011;4639;48.862;9.188;2023-06-14T05:25:59;6.13;;;4.05;;
9208;SDS011;4639;48.862;9.188;2023-06-14T05:28:27;4.53;;;4.00;;
9208;SDS011;4639;48.862;9.188;2023-06-14T05:30:53;8.98;;;4.45;;
9208;SDS011;4639;48.862;9.188;2023-06-14T05:33:18;8.25;;;4.50;;
9208;SDS011;4639;48.862;9.188;2023-06-14T05:35:44;7.10;;;4.00;;
9208;SDS011;4639;48.862;9.188;2023-06-14T05:38:09;6.20;;;4.30;;
9208;SDS011;4639;48.862;9.188;2023-06-14T05:40:35;6.63;;;4.40;;
9208;SDS011;4639;48.862;9.188;2023-06-14T05:43:01;9.70;;;4.65;;
9208;SDS011;4639;48.862;9.188;2023-06-14T05:45:26;6.78;;;4.53;;
9208;SDS011;4639;48.862;9.188;2023-06-14T05:47:52;6.75;;;4.68;;
9208;SDS011;4639;48.862;9.188;2023-06-14T05:50:19;5.82;;;4.28;;
9208;SDS011;4639;48.862;9.188;2023-06-14T05:52:45;14.07;;;5.03;;
9208;SDS011;4639;48.862;9.188;2023-06-14T05:55:11;7.70;;;4.50;;
9208;SDS011;4639;48.862;9.188;2023-06-14T05:57:37;6.22;;;4.40;;
9208;SDS011;4639;48.862;9.188;2023-06-14T06:00:03;9.20;;;4.38;;
9208;SDS011;4639;48.862;9.188;2023-06-14T06:02:40;5.03;;;3.83;;
9208;SDS011;4639;48.862;9.188;2023-06-14T06:05:11;4.55;;;3.72;;
9208;SDS011;4639;48.862;9.188;2023-06-14T06:07:38;6.88;;;3.88;;
9208;SDS011;4639;48.862;9.188;2023-06-14T06:10:09;7.97;;;4.38;;
9208;SDS011;4639;48.862;9.188;2023-06-14T06:12:34;4.88;;;4.07;;
9208;SDS011;4639;48.862;9.188;2023-06-14T06:15:00;5.50;;;3.88;;
9208;SDS011;4639;48.862;9.188;2023-06-14T06:17:26;8.98;;;4.43;;
9208;SDS011;4639;48.862;9.188;2023-06-14T06:19:52;7.32;;;3.90;;
9208;SDS011;4639;48.862;9.188;2023-06-14T06:22:17;10.25;;;4.60;;
9208;SDS011;4639;48.862;9.188;2023-06-14T06:24:43;7.82;;;4.32;;
9208;SDS011;4639;48.862;9.188;2023-06-14T06:27:08;7.40;;;4.20;;
9208;SDS011;4639;48.862;9.188;2023-06-14T06:29:35;12.70;;;4.28;;
9208;SDS011;4639;48.862;9.188;2023-06-14T06:32:01;6.38;;;4.28;;
9208;SDS011;4639;48.862;9.188;2023-06-14T06:34:27;6.93;;;3.85;;
9208;SDS011;4639;48.862;9.188;2023-06-14T06:36:52;6.93;;;3.92;;
9208;SDS011;4639;48.862;9.188;2023-06-14T06:39:18;7.15;;;3.78;;
9208;SDS011;4639;48.862;9.188;2023-06-14T06:41:44;7.53;;;4.00;;
9208;SDS011;4639;48.862;9.188;2023-06-14T06:44:09;4.65;;;3.95;;
9208;SDS011;4639;48.862;9.188;2023-06-14T06:46:36;15.75;;;4.40;;
9208;SDS011;4639;48.862;9.188;2023-06-14T06:49:05;4.93;;;3.88;;
9208;SDS011;4639;48.862;9.188;2023-06-14T06:51:31;12.50;;;4.18;;
9208;SDS011;4639;48.862;9.188;2023-06-14T06:53:56;10.45;;;4.40;;
9208;SDS011;4639;48.862;9.188;2023-06-14T06:56:22;9.48;;;4.45;;
9208;SDS011;4639;48.862;9.188;2023-06-14T06:58:51;7.00;;;4.25;;
9208;SDS011;4639;48.862;9.188;2023-06-14T07:01:17;10.52;;;4.15;;
9208;SDS011;4639;48.862;9.188;2023-06-14T07:03:43;11.10;;;4.78;;
9208;SDS011;4639;48.862;9.188;2023-06-14T07:06:09;10.98;;;4.50;;
9208;SDS011;4639;48.862;9.188;2023-06-14T07:08:35;13.77;;;4.22;;
9208;SDS011;4639;48.862;9.188;2023-06-14T07:11:01;14.82;;;5.15;;
9208;SDS011;4639;48.862;9.188;2023-06-14T07:13:27;6.88;;;4.20;;
9208;SDS011;4639;48.862;9.188;2023-06-14T07:15:58;10.68;;;4.15;;
9208;SDS011;4639;48.862;9.188;2023-06-14T07:18:25;10.27;;;4.32;;
9208;SDS011;4639;48.862;9.188;2023-06-14T07:20:51;8.35;;;4.30;;
9208;SDS011;4639;48.862;9.188;2023-06-14T07:23:18;11.05;;;4.68;;
9208;SDS011;4639;48.862;9.188;2023-06-14T07:25:45;7.20;;;4.32;;
9208;SDS011;4639;48.862;9.188;2023-06-14T07:28:10;11.70;;;4.53;;
9208;SDS011;4639;48.862;9.188;2023-06-14T07:30:36;6.35;;;4.28;;
9208;SDS011;4639;48.862;9.188;2023-06-14T07:33:01;6.75;;;4.22;;
9208;SDS011;4639;48.862;9.188;2023-06-14T07:35:27;13.73;;;4.55;;
9208;SDS011;4639;48.862;9.188;2023-06-14T07:37:52;7.20;;;3.92;;
9208;SDS011;4639;48.862;9.188;2023-06-14T07:40:18;9.73;;;4.10;;
9208;SDS011;4639;48.862;9.188;2023-06-14T07:42:44;6.60;;;4.43;;
9208;SDS011;4639;48.862;9.188;2023-06-14T07:45:10;9.20;;;4.13;;
9208;SDS011;4639;48.862;9.188;2023-06-14T07:47:39;9.63;;;4.32;;
9208;SDS011;4639;48.862;9.188;2023-06-14T07:50:05;12.23;;;4.80;;
9208;SDS011;4639;48.862;9.188;2023-06-14T07:52:31;5.53;;;4.22;;
9208;SDS011;4639;48.862;9.188;2023-06-14T07:54:56;11.60;;;4.43;;
9208;SDS011;4639;48.862;9.188;2023-06-14T07:57:22;7.03;;;3.60;;
9208;SDS011;4639;48.862;9.188;2023-06-14T07:59:47;9.80;;;3.83;;
9208;SDS011;4639;48.862;9.188;2023-06-14T08:02:13;5.40;;;3.88;;
9208;SDS011;4639;48.862;9.188;2023-06-14T08:04:39;7.78;;;3.72;;
9208;SDS011;4639;48.862;9.188;2023-06-14T08:07:05;8.63;;;4.18;;
9208;SDS011;4639;48.862;9.188;2023-06-14T08:09:31;11.23;;;4.55;;
9208;SDS011;4639;48.862;9.188;2023-06-14T08:11:56;9.30;;;4.30;;
9208;SDS011;4639;48.862;9.188;2023-06-14T08:14:22;8.00;;;3.95;;
9208;SDS011;4639;48.862;9.188;2023-06-14T08:16:48;7.65;;;3.83;;
9208;SDS011;4639;48.862;9.188;2023-06-14T08:19:13;5.82;;;4.00;;
9208;SDS011;4639;48.862;9.188;2023-06-14T08:21:41;5.78;;;3.85;;
9208;SDS011;4639;48.862;9.188;2023-06-14T08:24:07;11.38;;;3.95;;
9208;SDS011;4639;48.862;9.188;2023-06-14T08:26:32;7.97;;;3.70;;
9208;SDS011;4639;48.862;9.188;2023-06-14T08:28:58;5.57;;;4.20;;
9208;SDS011;4639;48.862;9.188;2023-06-14T08:31:24;8.18;;;4.00;;
9208;SDS011;4639;48.862;9.188;2023-06-14T08:33:52;5.03;;;3.83;;
9208;SDS011;4639;48.862;9.188;2023-06-14T08:36:18;11.05;;;4.97;;
9208;SDS011;4639;48.862;9.188;2023-06-14T08:38:43;10.15;;;4.00;;
9208;SDS011;4639;48.862;9.188;2023-06-14T08:41:09;7.03;;;3.97;;
9208;SDS011;4639;48.862;9.188;2023-06-14T08:43:38;9.32;;;3.97;;
9208;SDS011;4639;48.862;9.188;2023-06-14T08:46:04;7.70;;;3.90;;
9208;SDS011;4639;48.862;9.188;2023-06-14T08:48:33;6.47;;;4.03;;
9208;SDS011;4639;48.862;9.188;2023-06-14T08:50:59;5.78;;;4.18;;
9208;SDS011;4639;48.862;9.188;2023-06-14T08:53:31;6.97;;;4.00;;
9208;SDS011;4639;48.862;9.188;2023-06-14T08:55:59;6.55;;;4.00;;
9208;SDS011;4639;48.862;9.188;2023-06-14T08:58:27;8.88;;;4.32;;
9208;SDS011;4639;48.862;9.188;2023-06-14T09:00:54;5.82;;;4.13;;
9208;SDS011;4639;48.862;9.188;2023-06-14T09:03:20;7.28;;;3.88;;
9208;SDS011;4639;48.862;9.188;2023-06-14T09:05:47;6.93;;;4.28;;
9208;SDS011;4639;48.862;9.188;2023-06-14T09:08:13;4.68;;;4.00;;
9208;SDS011;4639;48.862;9.188;2023-06-14T09:10:39;4.50;;;3.95;;
9208;SDS011;4639;48.862;9.188;2023-06-14T09:13:05;6.38;;;3.63;;
9208;SDS011;4639;48.862;9.188;2023-06-14T09:15:31;5.40;;;4.43;;
9208;SDS011;4639;48.862;9.188;2023-06-14T09:17:57;8.40;;;3.90;;
9208;SDS011;4639;48.862;9.188;2023-06-14T09:20:25;7.97;;;3.97;;
9208;SDS011;4639;48.862;9.188;2023-06-14T09:22:51;5.95;;;4.45;;
9208;SDS011;4639;48.862;9.188;2023-06-14T09:25:18;6.47;;;4.15;;
9208;SDS011;4639;48.862;9.188;2023-06-14T09:27:45;8.07;;;3.70;;
9208;SDS011;4639;48.862;9.188;2023-06-14T09:30:12;6.03;;;3.90;;
9208;SDS011;4639;48.862;9.188;2023-06-14T09:32:38;9.82;;;4.15;;
9208;SDS011;4639;48.862;9.188;2023-06-14T09:35:08;5.95;;;4.10;;
9208;SDS011;4639;48.862;9.188;2023-06-14T09:37:34;4.43;;;4.03;;
9208;SDS011;4639;48.862;9.188;2023-06-14T09:40:00;8.15;;;4.03;;
9208;SDS011;4639;48.862;9.188;2023-06-14T09:42:28;6.32;;;4.10;;
9208;SDS011;4639;48.862;9.188;2023-06-14T09:44:55;4.95;;;3.50;;
9208;SDS011;4639;48.862;9.188;2023-06-14T09:47:21;7.90;;;4.40;;
9208;SDS011;4639;48.862;9.188;2023-06-14T09:49:48;4.15;;;3.63;;
9208;SDS011;4639;48.862;9.188;2023-06-14T09:52:15;3.95;;;3.53;;
9208;SDS011;4639;48.862;9.188;2023-06-14T09:54:42;6.55;;;3.75;;
9208;SDS011;4639;48.862;9.188;2023-06-14T09:57:12;10.88;;;3.80;;
9208;SDS011;4639;48.862;9.188;2023-06-14T09:59:40;8.10;;;3.67;;
9208;SDS011;4639;48.862;9.188;2023-06-14T10:02:10;9.00;;;4.13;;
9208;SDS011;4639;48.862;9.188;2023-06-14T10:04:39;7.07;;;3.90;;
9208;SDS011;4639;48.862;9.188;2023-06-14T10:07:11;4.00;;;3.35;;
9208;SDS011;4639;48.862;9.188;2023-06-14T10:09:44;8.55;;;3.72;;
9208;SDS011;4639;48.862;9.188;2023-06-14T10:12:15;3.78;;;3.45;;
9208;SDS011;4639;48.862;9.188;2023-06-14T10:14:46;4.72;;;3.63;;
9208;SDS011;4639;48.862;9.188;2023-06-14T10:17:33;11.32;;;3.42;;
9208;SDS011;4639;48.862;9.188;2023-06-14T10:23:02;3.92;;;3.30;;
9208;SDS011;4639;48.862;9.188;2023-06-14T10:25:33;8.82;;;3.88;;
9208;SDS011;4639;48.862;9.188;2023-06-14T10:30:37;7.25;;;3.60;;
9208;SDS011;4639;48.862;9.188;2023-06-14T10:33:03;7.32;;;3.55;;
9208;SDS011;4639;48.862;9.188;2023-06-14T10:35:32;11.50;;;3.47;;
9208;SDS011;4639;48.862;9.188;2023-06-14T10:38:11;4.72;;;3.40;;
9208;SDS011;4639;48.862;9.188;2023-06-14T10:40:37;4.10;;;3.33;;
9208;SDS011;4639;48.862;9.188;2023-06-14T10:43:21;6.78;;;3.33;;
9208;SDS011;4639;48.862;9.188;2023-06-14T10:48:40;8.93;;;3.50;;
9208;SDS011;4639;48.862;9.188;2023-06-14T10:51:13;4.53;;;3.08;;
9208;SDS011;4639;48.862;9.188;2023-06-14T10:53:45;9.82;;;3.60;;
9208;SDS011;4639;48.862;9.188;2023-06-14T10:56:27;7.00;;;3.10;;
9208;SDS011;4639;48.862;9.188;2023-06-14T10:58:53;3.45;;;3.00;;
9208;SDS011;4639;48.862;9.188;2023-06-14T11:01:23;6.68;;;3.10;;
9208;SDS011;4639;48.862;9.188;2023-06-14T11:04:00;4.15;;;3.00;;
9208;SDS011;4639;48.862;9.188;2023-06-14T11:12:19;6.38;;;3.58;;
9208;SDS011;4639;48.862;9.188;2023-06-14T11:14:46;5.65;;;3.28;;
9208;SDS011;4639;48.862;9.188;2023-06-14T11:17:12;7.20;;;3.08;;
9208;SDS011;4639;48.862;9.188;2023-06-14T11:19:38;4.35;;;3.55;;
9208;SDS011;4639;48.862;9.188;2023-06-14T11:22:04;5.32;;;3.25;;
9208;SDS011;4639;48.862;9.188;2023-06-14T11:24:31;4.95;;;2.92;;
9208;SDS011;4639;48.862;9.188;2023-06-14T11:26:57;5.72;;;3.33;;
9208;SDS011;4639;48.862;9.188;2023-06-14T11:29:23;5.00;;;3.20;;
9208;SDS011;4639;48.862;9.188;2023-06-14T11:31:49;4.07;;;3.15;;
9208;SDS011;4639;48.862;9.188;2023-06-14T11:34:16;4.03;;;3.25;;
9208;SDS011;4639;48.862;9.188;2023-06-14T11:36:42;8.55;;;3.13;;
9208;SDS011;4639;48.862;9.188;2023-06-14T11:39:08;5.13;;;3.28;;
9208;SDS011;4639;48.862;9.188;2023-06-14T11:41:52;4.93;;;3.25;;
9208;SDS011;4639;48.862;9.188;2023-06-14T11:44:17;5.15;;;3.05;;
9208;SDS011;4639;48.862;9.188;2023-06-14T11:46:43;6.25;;;3.28;;
9208;SDS011;4639;48.862;9.188;2023-06-14T11:49:09;6.47;;;3.00;;
9208;SDS011;4639;48.862;9.188;2023-06-14T11:51:35;5.55;;;3.40;;
9208;SDS011;4639;48.862;9.188;2023-06-14T11:54:02;3.80;;;3.20;;
9208;SDS011;4639;48.862;9.188;2023-06-14T11:56:28;6.70;;;3.38;;
9208;SDS011;4639;48.862;9.188;2023-06-14T11:58:55;7.00;;;3.33;;
9208;SDS011;4639;48.862;9.188;2023-06-14T12:01:22;5.75;;;3.17;;
9208;SDS011;4639;48.862;9.188;2023-06-14T12:03:48;6.80;;;3.03;;
9208;SDS011;4639;48.862;9.188;2023-06-14T12:06:15;3.53;;;3.20;;
9208;SDS011;4639;48.862;9.188;2023-06-14T12:08:42;7.53;;;3.72;;
9208;SDS011;4639;48.862;9.188;2023-06-14T12:11:10;5.10;;;3.08;;
9208;SDS011;4639;48.862;9.188;2023-06-14T12:13:38;4.75;;;3.03;;
9208;SDS011;4639;48.862;9.188;2023-06-14T12:16:07;8.40;;;3.45;;
9208;SDS011;4639;48.862;9.188;2023-06-14T12:18:34;4.55;;;3.33;;
9208;SDS011;4639;48.862;9.188;2023-06-14T12:21:02;7.15;;;3.22;;
9208;SDS011;4639;48.862;9.188;2023-06-14T12:24:05;6.50;;;3.30;;
9208;SDS011;4639;48.862;9.188;2023-06-14T12:26:23;5.90;;;3.50;;
9208;SDS011;4639;48.862;9.188;2023-06-14T12:28:51;8.45;;;3.78;;
9208;SDS011;4639;48.862;9.188;2023-06-14T12:31:17;3.92;;;2.88;;
9208;SDS011;4639;48.862;9.188;2023-06-14T12:33:44;4.55;;;3.30;;
9208;SDS011;4639;48.862;9.188;2023-06-14T12:36:14;6.18;;;3.10;;
9208;SDS011;4639;48.862;9.188;2023-06-14T12:38:40;3.92;;;3.20;;
9208;SDS011;4639;48.862;9.188;2023-06-14T12:41:06;5.30;;;3.10;;
9208;SDS011;4639;48.862;9.188;2023-06-14T12:43:32;4.97;;;3.30;;
9208;SDS011;4639;48.862;9.188;2023-06-14T12:45:58;4.93;;;3.17;;
9208;SDS011;4639;48.862;9.188;2023-06-14T12:48:24;4.38;;;3.42;;
9208;SDS011;4639;48.862;9.188;2023-06-14T12:50:52;8.40;;;3.20;;
9208;SDS011;4639;48.862;9.188;2023-06-14T12:53:18;4.47;;;3.10;;
9208;SDS011;4639;48.862;9.188;2023-06-14T12:55:43;9.88;;;3.38;;
9208;SDS011;4639;48.862;9.188;2023-06-14T12:58:09;6.13;;;2.80;;
9208;SDS011;4639;48.862;9.188;2023-06-14T13:00:37;4.60;;;3.47;;
9208;SDS011;4639;48.862;9.188;2023-06-14T13:03:03;4.30;;;3.15;;
9208;SDS011;4639;48.862;9.188;2023-06-14T13:05:28;5.65;;;3.05;;
9208;SDS011;4639;48.862;9.188;2023-06-14T13:07:56;4.70;;;3.28;;
9208;SDS011;4639;48.862;9.188;2023-06-14T13:10:22;4.32;;;3.30;;
9208;SDS011;4639;48.862;9.188;2023-06-14T13:12:47;11.52;;;3.10;;
9208;SDS011;4639;48.862;9.188;2023-06-14T13:15:13;3.55;;;2.80;;
9208;SDS011;4639;48.862;9.188;2023-06-14T13:17:38;3.60;;;3.03;;
9208;SDS011;4639;48.862;9.188;2023-06-14T13:20:05;5.93;;;3.17;;
9208;SDS011;4639;48.862;9.188;2023-06-14T13:22:32;4.63;;;3.10;;
9208;SDS011;4639;48.862;9.188;2023-06-14T13:24:57;4.13;;;3.17;;
9208;SDS011;4639;48.862;9.188;2023-06-14T13:27:23;6.15;;;3.03;;
9208;SDS011;4639;48.862;9.188;2023-06-14T13:29:49;9.13;;;2.95;;
9208;SDS011;4639;48.862;9.188;2023-06-14T13:32:15;4.22;;;2.95;;
9208;SDS011;4639;48.862;9.188;2023-06-14T13:34:41;6.10;;;3.53;;
9208;SDS011;4639;48.862;9.188;2023-06-14T13:37:06;9.65;;;3.30;;
9208;SDS011;4639;48.862;9.188;2023-06-14T13:39:32;6.00;;;3.25;;
9208;SDS011;4639;48.862;9.188;2023-06-14T13:41:57;5.57;;;2.85;;
9208;SDS011;4639;48.862;9.188;2023-06-14T13:44:23;7.53;;;2.95;;
9208;SDS011;4639;48.862;9.188;2023-06-14T13:46:49;5.85;;;3.30;;
9208;SDS011;4639;48.862;9.188;2023-06-14T13:49:15;4.35;;;3.33;;
9208;SDS011;4639;48.862;9.188;2023-06-14T13:51:41;5.95;;;3.53;;
9208;SDS011;4639;48.862;9.188;2023-06-14T13:54:07;5.75;;;3.05;;
9208;SDS011;4639;48.862;9.188;2023-06-14T13:56:33;6.63;;;3.30;;
9208;SDS011;4639;48.862;9.188;2023-06-14T13:58:58;5.70;;;2.70;;
9208;SDS011;4639;48.862;9.188;2023-06-14T14:01:25;5.20;;;3.13;;
9208;SDS011;4639;48.862;9.188;2023-06-14T14:03:51;5.78;;;2.83;;
9208;SDS011;4639;48.862;9.188;2023-06-14T14:06:17;15.93;;;2.97;;
9208;SDS011;4639;48.862;9.188;2023-06-14T14:08:42;5.03;;;2.58;;
9208;SDS011;4639;48.862;9.188;2023-06-14T14:11:09;4.95;;;3.42;;
9208;SDS011;4639;48.862;9.188;2023-06-14T14:13:35;5.95;;;2.90;;
9208;SDS011;4639;48.862;9.188;2023-06-14T14:16:04;5.43;;;2.88;;
9208;SDS011;4639;48.862;9.188;2023-06-14T14:18:30;4.32;;;2.78;;
9208;SDS011;4639;48.862;9.188;2023-06-14T14:20:57;5.13;;;3.45;;
9208;SDS011;4639;48.862;9.188;2023-06-14T14:23:23;3.70;;;2.90;;
9208;SDS011;4639;48.862;9.188;2023-06-14T14:25:49;5.63;;;3.15;;
9208;SDS011;4639;48.862;9.188;2023-06-14T14:28:15;6.72;;;3.08;;
9208;SDS011;4639;48.862;9.188;2023-06-14T14:30:41;6.25;;;3.20;;
9208;SDS011;4639;48.862;9.188;2023-06-14T14:33:07;5.43;;;3.03;;
9208;SDS011;4639;48.862;9.188;2023-06-14T14:35:33;3.28;;;2.78;;
9208;SDS011;4639;48.862;9.188;2023-06-14T14:37:58;4.82;;;3.20;;
9208;SDS011;4639;48.862;9.188;2023-06-14T14:40:24;4.68;;;3.20;;
9208;SDS011;4639;48.862;9.188;2023-06-14T14:42:50;4.90;;;2.80;;
9208;SDS011;4639;48.862;9.188;2023-06-14T14:45:15;4.85;;;3.15;;
9208;SDS011;4639;48.862;9.188;2023-06-14T14:47:41;5.72;;;3.08;;
9208;SDS011;4639;48.862;9.188;2023-06-14T14:50:06;5.85;;;3.17;;
9208;SDS011;4639;48.862;9.188;2023-06-14T14:52:35;6.20;;;3.28;;
9208;SDS011;4639;48.862;9.188;2023-06-14T14:55:01;3.35;;;2.90;;
9208;SDS011;4639;48.862;9.188;2023-06-14T14:57:27;3.97;;;2.70;;
9208;SDS011;4639;48.862;9.188;2023-06-14T14:59:52;4.15;;;2.80;;
9208;SDS011;4639;48.862;9.188;2023-06-14T15:02:18;5.13;;;3.05;;
9208;SDS011;4639;48.862;9.188;2023-06-14T15:04:44;5.57;;;3.10;;
9208;SDS011;4639;48.862;9.188;2023-06-14T15:07:10;4.07;;;3.08;;
9208;SDS011;4639;48.862;9.188;2023-06-14T15:09:36;4.72;;;2.88;;
9208;SDS011;4639;48.862;9.188;2023-06-14T15:12:03;3.53;;;3.10;;
9208;SDS011;4639;48.862;9.188;2023-06-14T15:14:29;7.15;;;3.38;;
9208;SDS011;4639;48.862;9.188;2023-06-14T15:16:54;5.53;;;3.30;;
9208;SDS011;4639;48.862;9.188;2023-06-14T15:19:20;5.25;;;2.83;;
9208;SDS011;4639;48.862;9.188;2023-06-14T15:21:45;5.78;;;3.38;;
9208;SDS011;4639;48.862;9.188;2023-06-14T15:24:11;5.43;;;2.95;;
9208;SDS011;4639;48.862;9.188;2023-06-14T15:26:37;3.90;;;2.70;;
9208;SDS011;4639;48.862;9.188;2023-06-14T15:29:02;5.55;;;3.13;;